sensor_id;sensor_type;location;lat;lon;timestamp;P1;durP1;ratioP1;P2;durP2;ratioP2
68523;SDS011;55524;51.380;13.372;2023-07-29T00:01:36;2.55;;;1.48;;
68523;SDS011;55524;51.380;13.372;2023-07-29T00:04:05;1.80;;;1.50;;
68523;SDS011;55524;51.380;13.372;2023-07-29T00:06:31;2.15;;;1.33;;
68523;SDS011;55524;51.380;13.372;2023-07-29T00:08:57;2.45;;;1.58;;
68523;SDS011;55524;51.380;13.372;2023-07-29T00:11:23;2.83;;;1.42;;
68523;SDS011;55524;51.380;13.372;2023-07-29T00:13:50;1.77;;;1.40;;
68523;SDS011;55524;51.380;13.372;2023-07-29T00:16:17;1.52;;;1.42;;
68523;SDS011;55524;51.380;13.372;2023-07-29T00:18:47;1.25;;;1.20;;
68523;SDS011;55524;51.380;13.372;2023-07-29T00:21:13;3.08;;;1.50;;
68523;SDS011;55524;51.380;13.372;2023-07-29T00:23:40;1.40;;;1.30;;
68523;SDS011;55524;51.380;13.372;2023-07-29T00:26:06;2.10;;;1.48;;
68523;SDS011;55524;51.380;13.372;2023-07-29T00:28:32;2.45;;;2.25;;
68523;SDS011;55524;51.380;13.372;2023-07-29T00:30:58;1.70;;;1.60;;
68523;SDS011;55524;51.380;13.372;2023-07-29T00:33:25;2.58;;;1.33;;
68523;SDS011;55524;51.380;13.372;2023-07-29T00:35:51;1.90;;;1.40;;
68523;SDS011;55524;51.380;13.372;2023-07-29T00:38:17;2.58;;;1.30;;
68523;SDS011;55524;51.380;13.372;2023-07-29T00:40:43;4.43;;;1.70;;
68523;SDS011;55524;51.380;13.372;2023-07-29T00:43:10;1.40;;;1.30;;
68523;SDS011;55524;51.380;13.372;2023-07-29T00:45:36;1.95;;;1.50;;
68523;SDS011;55524;51.380;13.372;2023-07-29T00:48:03;1.88;;;1.77;;
68523;SDS011;55524;51.380;13.372;2023-07-29T00:50:30;1.40;;;1.30;;
68523;SDS011;55524;51.380;13.372;2023-07-29T00:52:57;1.63;;;1.50;;
68523;SDS011;55524;51.380;13.372;2023-07-29T00:55:24;6.90;;;1.90;;
68523;SDS011;55524;51.380;13.372;2023-07-29T00:57:51;2.13;;;1.58;;
68523;SDS011;55524;51.380;13.372;2023-07-29T01:00:19;1.85;;;1.70;;
68523;SDS011;55524;51.380;13.372;2023-07-29T01:02:46;1.75;;;1.65;;
68523;SDS011;55524;51.380;13.372;2023-07-29T01:05:13;2.92;;;2.72;;
68523;SDS011;55524;51.380;13.372;2023-07-29T01:16:25;2.42;;;1.73;;
68523;SDS011;55524;51.380;13.372;2023-07-29T01:18:55;2.30;;;2.10;;
68523;SDS011;55524;51.380;13.372;2023-07-29T01:21:23;1.95;;;1.85;;
68523;SDS011;55524;51.380;13.372;2023-07-29T01:23:52;2.38;;;2.17;;
68523;SDS011;55524;51.380;13.372;2023-07-29T01:26:23;2.10;;;2.00;;
68523;SDS011;55524;51.380;13.372;2023-07-29T01:28:49;3.83;;;2.13;;
68523;SDS011;55524;51.380;13.372;2023-07-29T01:31:16;2.38;;;2.00;;
68523;SDS011;55524;51.380;13.372;2023-07-29T01:36:42;2.28;;;2.08;;
68523;SDS011;55524;51.380;13.372;2023-07-29T01:39:12;2.47;;;2.28;;
68523;SDS011;55524;51.380;13.372;2023-07-29T01:41:42;3.45;;;2.13;;
68523;SDS011;55524;51.380;13.372;2023-07-29T01:44:10;2.78;;;2.08;;
68523;SDS011;55524;51.380;13.372;2023-07-29T01:46:37;2.08;;;1.98;;
68523;SDS011;55524;51.380;13.372;2023-07-29T01:49:03;2.15;;;1.95;;
68523;SDS011;55524;51.380;13.372;2023-07-29T01:54:52;2.72;;;2.30;;
68523;SDS011;55524;51.380;13.372;2023-07-29T01:57:18;4.40;;;2.72;;
68523;SDS011;55524;51.380;13.372;2023-07-29T01:59:45;2.90;;;2.70;;
68523;SDS011;55524;51.380;13.372;2023-07-29T02:02:11;3.33;;;2.40;;
68523;SDS011;55524;51.380;13.372;2023-07-29T02:04:37;2.45;;;2.33;;
68523;SDS011;55524;51.380;13.372;2023-07-29T02:07:03;4.05;;;2.92;;
68523;SDS011;55524;51.380;13.372;2023-07-29T02:09:30;3.72;;;2.90;;
68523;SDS011;55524;51.380;13.372;2023-07-29T02:11:56;3.10;;;2.75;;
68523;SDS011;55524;51.380;13.372;2023-07-29T02:14:23;4.80;;;2.75;;
68523;SDS011;55524;51.380;13.372;2023-07-29T02:16:49;3.10;;;2.90;;
68523;SDS011;55524;51.380;13.372;2023-07-29T02:19:15;3.70;;;2.58;;
68523;SDS011;55524;51.380;13.372;2023-07-29T02:21:42;2.80;;;2.60;;
68523;SDS011;55524;51.380;13.372;2023-07-29T02:24:08;2.92;;;2.63;;
68523;SDS011;55524;51.380;13.372;2023-07-29T02:26:35;2.63;;;2.40;;
68523;SDS011;55524;51.380;13.372;2023-07-29T02:29:01;2.92;;;2.70;;
68523;SDS011;55524;51.380;13.372;2023-07-29T02:31:27;5.07;;;2.40;;
68523;SDS011;55524;51.380;13.372;2023-07-29T02:33:53;2.38;;;2.28;;
68523;SDS011;55524;51.380;13.372;2023-07-29T02:36:20;5.88;;;2.63;;
68523;SDS011;55524;51.380;13.372;2023-07-29T02:38:47;2.47;;;2.28;;
68523;SDS011;55524;51.380;13.372;2023-07-29T02:41:13;3.03;;;2.30;;
68523;SDS011;55524;51.380;13.372;2023-07-29T02:43:41;2.78;;;2.58;;
68523;SDS011;55524;51.380;13.372;2023-07-29T02:46:08;2.60;;;2.40;;
68523;SDS011;55524;51.380;13.372;2023-07-29T02:48:35;2.55;;;2.35;;
68523;SDS011;55524;51.380;13.372;2023-07-29T02:51:01;2.88;;;2.10;;
68523;SDS011;55524;51.380;13.372;2023-07-29T02:53:27;1.98;;;1.88;;
68523;SDS011;55524;51.380;13.372;2023-07-29T02:55:53;2.67;;;1.95;;
68523;SDS011;55524;51.380;13.372;2023-07-29T02:58:20;1.98;;;1.80;;
68523;SDS011;55524;51.380;13.372;2023-07-29T03:00:46;2.05;;;1.95;;
68523;SDS011;55524;51.380;13.372;2023-07-29T03:03:13;3.42;;;2.10;;
68523;SDS011;55524;51.380;13.372;2023-07-29T03:05:40;4.35;;;2.28;;
68523;SDS011;55524;51.380;13.372;2023-07-29T03:08:06;2.05;;;1.88;;
68523;SDS011;55524;51.380;13.372;2023-07-29T03:10:34;3.25;;;1.88;;
68523;SDS011;55524;51.380;13.372;2023-07-29T03:13:01;2.45;;;2.00;;
68523;SDS011;55524;51.380;13.372;2023-07-29T03:15:28;2.88;;;1.80;;
68523;SDS011;55524;51.380;13.372;2023-07-29T03:17:54;1.90;;;1.80;;
68523;SDS011;55524;51.380;13.372;2023-07-29T03:20:20;4.07;;;1.98;;
68523;SDS011;55524;51.380;13.372;2023-07-29T03:22:46;2.97;;;1.77;;
68523;SDS011;55524;51.380;13.372;2023-07-29T03:25:13;1.80;;;1.70;;
68523;SDS011;55524;51.380;13.372;2023-07-29T03:27:39;3.42;;;1.38;;
68523;SDS011;55524;51.380;13.372;2023-07-29T03:30:06;1.75;;;1.52;;
68523;SDS011;55524;51.380;13.372;2023-07-29T03:32:32;1.33;;;1.23;;
68523;SDS011;55524;51.380;13.372;2023-07-29T03:34:59;1.45;;;1.35;;
68523;SDS011;55524;51.380;13.372;2023-07-29T03:37:25;1.50;;;1.40;;
68523;SDS011;55524;51.380;13.372;2023-07-29T03:39:51;1.60;;;1.50;;
68523;SDS011;55524;51.380;13.372;2023-07-29T03:42:18;3.67;;;1.40;;
68523;SDS011;55524;51.380;13.372;2023-07-29T03:44:44;1.40;;;1.30;;
68523;SDS011;55524;51.380;13.372;2023-07-29T03:47:10;1.48;;;1.30;;
68523;SDS011;55524;51.380;13.372;2023-07-29T03:49:37;1.50;;;1.20;;
68523;SDS011;55524;51.380;13.372;2023-07-29T03:52:03;2.72;;;1.30;;
68523;SDS011;55524;51.380;13.372;2023-07-29T03:54:30;1.27;;;1.27;;
68523;SDS011;55524;51.380;13.372;2023-07-29T03:56:56;2.83;;;1.20;;
68523;SDS011;55524;51.380;13.372;2023-07-29T03:59:22;1.27;;;1.20;;
68523;SDS011;55524;51.380;13.372;2023-07-29T04:01:48;1.25;;;1.10;;
68523;SDS011;55524;51.380;13.372;2023-07-29T04:04:15;1.10;;;1.10;;
68523;SDS011;55524;51.380;13.372;2023-07-29T04:06:41;1.30;;;1.20;;
68523;SDS011;55524;51.380;13.372;2023-07-29T04:09:07;1.92;;;1.35;;
68523;SDS011;55524;51.380;13.372;2023-07-29T04:11:34;1.00;;;1.00;;
68523;SDS011;55524;51.380;13.372;2023-07-29T04:14:00;1.38;;;1.27;;
68523;SDS011;55524;51.380;13.372;2023-07-29T04:16:26;1.38;;;1.27;;
68523;SDS011;55524;51.380;13.372;2023-07-29T04:18:53;1.15;;;1.15;;
68523;SDS011;55524;51.380;13.372;2023-07-29T04:21:20;2.97;;;1.33;;
68523;SDS011;55524;51.380;13.372;2023-07-29T04:23:46;1.58;;;1.20;;
68523;SDS011;55524;51.380;13.372;2023-07-29T04:26:12;1.13;;;1.13;;
68523;SDS011;55524;51.380;13.372;2023-07-29T04:28:38;1.42;;;1.33;;
68523;SDS011;55524;51.380;13.372;2023-07-29T04:31:05;1.55;;;1.45;;
68523;SDS011;55524;51.380;13.372;2023-07-29T04:33:31;1.20;;;1.20;;
68523;SDS011;55524;51.380;13.372;2023-07-29T04:35:57;1.45;;;1.20;;
68523;SDS011;55524;51.380;13.372;2023-07-29T04:38:27;1.15;;;1.15;;
68523;SDS011;55524;51.380;13.372;2023-07-29T04:40:56;1.65;;;1.55;;
68523;SDS011;55524;51.380;13.372;2023-07-29T04:43:26;1.33;;;1.23;;
68523;SDS011;55524;51.380;13.372;2023-07-29T04:45:53;1.80;;;1.15;;
68523;SDS011;55524;51.380;13.372;2023-07-29T04:48:20;1.20;;;1.20;;
68523;SDS011;55524;51.380;13.372;2023-07-29T04:50:46;1.13;;;1.13;;
68523;SDS011;55524;51.380;13.372;2023-07-29T04:53:12;1.20;;;1.20;;
68523;SDS011;55524;51.380;13.372;2023-07-29T04:55:41;1.00;;;1.00;;
68523;SDS011;55524;51.380;13.372;2023-07-29T04:58:08;1.10;;;1.10;;
68523;SDS011;55524;51.380;13.372;2023-07-29T05:00:34;2.35;;;1.30;;
68523;SDS011;55524;51.380;13.372;2023-07-29T05:03:01;2.30;;;1.30;;
68523;SDS011;55524;51.380;13.372;2023-07-29T05:05:27;1.38;;;1.17;;
68523;SDS011;55524;51.380;13.372;2023-07-29T05:07:53;1.38;;;1.20;;
68523;SDS011;55524;51.380;13.372;2023-07-29T05:10:20;1.42;;;1.30;;
68523;SDS011;55524;51.380;13.372;2023-07-29T05:12:46;1.50;;;1.40;;
68523;SDS011;55524;51.380;13.372;2023-07-29T05:15:12;1.77;;;1.40;;
68523;SDS011;55524;51.380;13.372;2023-07-29T05:17:39;1.38;;;1.23;;
68523;SDS011;55524;51.380;13.372;2023-07-29T05:20:05;2.45;;;1.40;;
68523;SDS011;55524;51.380;13.372;2023-07-29T05:22:32;1.75;;;1.13;;
68523;SDS011;55524;51.380;13.372;2023-07-29T05:24:58;1.88;;;1.20;;
68523;SDS011;55524;51.380;13.372;2023-07-29T05:27:24;2.75;;;1.30;;
68523;SDS011;55524;51.380;13.372;2023-07-29T05:29:51;1.40;;;1.30;;
68523;SDS011;55524;51.380;13.372;2023-07-29T05:32:17;2.25;;;1.30;;
68523;SDS011;55524;51.380;13.372;2023-07-29T05:34:43;1.33;;;1.23;;
68523;SDS011;55524;51.380;13.372;2023-07-29T05:37:09;1.95;;;1.20;;
68523;SDS011;55524;51.380;13.372;2023-07-29T05:39:35;3.00;;;1.20;;
68523;SDS011;55524;51.380;13.372;2023-07-29T05:42:02;1.92;;;1.10;;
68523;SDS011;55524;51.380;13.372;2023-07-29T05:44:29;1.27;;;1.08;;
68523;SDS011;55524;51.380;13.372;2023-07-29T05:46:56;1.52;;;1.10;;
68523;SDS011;55524;51.380;13.372;2023-07-29T05:49:22;1.40;;;1.30;;
68523;SDS011;55524;51.380;13.372;2023-07-29T05:51:48;1.00;;;1.00;;
68523;SDS011;55524;51.380;13.372;2023-07-29T05:54:17;2.85;;;1.10;;
68523;SDS011;55524;51.380;13.372;2023-07-29T05:56:44;1.10;;;1.00;;
68523;SDS011;55524;51.380;13.372;2023-07-29T05:59:10;3.90;;;0.95;;
68523;SDS011;55524;51.380;13.372;2023-07-29T06:01:36;0.88;;;0.80;;
68523;SDS011;55524;51.380;13.372;2023-07-29T06:04:03;1.02;;;0.90;;
68523;SDS011;55524;51.380;13.372;2023-07-29T06:06:31;1.50;;;1.02;;
68523;SDS011;55524;51.380;13.372;2023-07-29T06:08:57;1.10;;;1.00;;
68523;SDS011;55524;51.380;13.372;2023-07-29T06:11:23;1.38;;;1.10;;
68523;SDS011;55524;51.380;13.372;2023-07-29T06:13:50;1.33;;;1.05;;
68523;SDS011;55524;51.380;13.372;2023-07-29T06:16:16;1.23;;;1.17;;
68523;SDS011;55524;51.380;13.372;2023-07-29T06:18:42;1.00;;;1.00;;
68523;SDS011;55524;51.380;13.372;2023-07-29T06:21:09;1.20;;;1.08;;
68523;SDS011;55524;51.380;13.372;2023-07-29T06:23:37;2.30;;;1.10;;
68523;SDS011;55524;51.380;13.372;2023-07-29T06:26:03;1.10;;;1.00;;
68523;SDS011;55524;51.380;13.372;2023-07-29T06:28:31;1.10;;;1.00;;
68523;SDS011;55524;51.380;13.372;2023-07-29T06:30:58;1.23;;;1.15;;
68523;SDS011;55524;51.380;13.372;2023-07-29T06:33:24;1.58;;;1.00;;
68523;SDS011;55524;51.380;13.372;2023-07-29T06:35:50;26.83;;;2.70;;
68523;SDS011;55524;51.380;13.372;2023-07-29T06:38:16;7.47;;;1.60;;
68523;SDS011;55524;51.380;13.372;2023-07-29T06:40:46;4.13;;;1.40;;
68523;SDS011;55524;51.380;13.372;2023-07-29T06:43:13;2.38;;;1.10;;
68523;SDS011;55524;51.380;13.372;2023-07-29T06:45:40;2.13;;;1.20;;
68523;SDS011;55524;51.380;13.372;2023-07-29T06:48:06;2.80;;;1.38;;
68523;SDS011;55524;51.380;13.372;2023-07-29T06:50:32;2.88;;;1.25;;
68523;SDS011;55524;51.380;13.372;2023-07-29T06:52:59;1.98;;;1.20;;
68523;SDS011;55524;51.380;13.372;2023-07-29T06:55:25;2.28;;;1.30;;
68523;SDS011;55524;51.380;13.372;2023-07-29T06:57:51;2.42;;;1.15;;
68523;SDS011;55524;51.380;13.372;2023-07-29T07:00:18;3.90;;;1.25;;
68523;SDS011;55524;51.380;13.372;2023-07-29T07:02:44;8.82;;;1.38;;
68523;SDS011;55524;51.380;13.372;2023-07-29T07:05:10;5.60;;;1.10;;
68523;SDS011;55524;51.380;13.372;2023-07-29T07:07:36;3.95;;;1.08;;
68523;SDS011;55524;51.380;13.372;2023-07-29T07:10:03;11.73;;;1.70;;
68523;SDS011;55524;51.380;13.372;2023-07-29T07:12:29;1.48;;;0.90;;
68523;SDS011;55524;51.380;13.372;2023-07-29T07:14:56;0.88;;;0.88;;
68523;SDS011;55524;51.380;13.372;2023-07-29T07:17:22;3.35;;;1.00;;
68523;SDS011;55524;51.380;13.372;2023-07-29T07:19:48;3.10;;;1.02;;
68523;SDS011;55524;51.380;13.372;2023-07-29T07:22:15;1.48;;;1.00;;
68523;SDS011;55524;51.380;13.372;2023-07-29T07:24:42;0.90;;;0.90;;
68523;SDS011;55524;51.380;13.372;2023-07-29T07:27:08;3.35;;;1.00;;
68523;SDS011;55524;51.380;13.372;2023-07-29T07:29:34;1.27;;;1.17;;
68523;SDS011;55524;51.380;13.372;2023-07-29T07:32:00;0.90;;;0.90;;
68523;SDS011;55524;51.380;13.372;2023-07-29T07:34:27;33.15;;;3.53;;
68523;SDS011;55524;51.380;13.372;2023-07-29T07:36:53;3.08;;;1.40;;
68523;SDS011;55524;51.380;13.372;2023-07-29T07:39:19;1.13;;;1.02;;
68523;SDS011;55524;51.380;13.372;2023-07-29T07:41:46;3.53;;;1.15;;
68523;SDS011;55524;51.380;13.372;2023-07-29T07:44:12;23.05;;;2.50;;
68523;SDS011;55524;51.380;13.372;2023-07-29T07:46:40;2.58;;;1.00;;
68523;SDS011;55524;51.380;13.372;2023-07-29T07:49:07;2.45;;;1.00;;
68523;SDS011;55524;51.380;13.372;2023-07-29T07:51:33;3.53;;;0.93;;
68523;SDS011;55524;51.380;13.372;2023-07-29T07:54:00;1.55;;;0.80;;
68523;SDS011;55524;51.380;13.372;2023-07-29T07:56:26;1.33;;;1.00;;
68523;SDS011;55524;51.380;13.372;2023-07-29T07:58:52;3.15;;;0.88;;
68523;SDS011;55524;51.380;13.372;2023-07-29T08:01:19;0.80;;;0.80;;
68523;SDS011;55524;51.380;13.372;2023-07-29T08:03:45;0.70;;;0.70;;
68523;SDS011;55524;51.380;13.372;2023-07-29T08:06:11;1.35;;;0.90;;
68523;SDS011;55524;51.380;13.372;2023-07-29T08:08:37;2.20;;;1.10;;
68523;SDS011;55524;51.380;13.372;2023-07-29T08:11:04;0.80;;;0.80;;
68523;SDS011;55524;51.380;13.372;2023-07-29T08:13:30;1.75;;;0.80;;
68523;SDS011;55524;51.380;13.372;2023-07-29T08:15:56;2.05;;;0.85;;
68523;SDS011;55524;51.380;13.372;2023-07-29T08:18:23;2.85;;;0.80;;
68523;SDS011;55524;51.380;13.372;2023-07-29T08:23:28;0.88;;;0.88;;
68523;SDS011;55524;51.380;13.372;2023-07-29T08:25:59;2.63;;;0.80;;
68523;SDS011;55524;51.380;13.372;2023-07-29T08:28:27;1.13;;;0.90;;
68523;SDS011;55524;51.380;13.372;2023-07-29T08:30:56;1.33;;;0.90;;
68523;SDS011;55524;51.380;13.372;2023-07-29T08:33:22;0.82;;;0.82;;
68523;SDS011;55524;51.380;13.372;2023-07-29T08:35:49;2.90;;;0.70;;
68523;SDS011;55524;51.380;13.372;2023-07-29T08:38:15;2.15;;;0.85;;
68523;SDS011;55524;51.380;13.372;2023-07-29T08:40:42;1.05;;;0.90;;
68523;SDS011;55524;51.380;13.372;2023-07-29T08:43:31;1.60;;;0.90;;
68523;SDS011;55524;51.380;13.372;2023-07-29T08:45:58;0.80;;;0.80;;
68523;SDS011;55524;51.380;13.372;2023-07-29T08:48:40;2.50;;;0.88;;
68523;SDS011;55524;51.380;13.372;2023-07-29T08:51:08;0.70;;;0.70;;
68523;SDS011;55524;51.380;13.372;2023-07-29T08:53:39;2.55;;;0.88;;
68523;SDS011;55524;51.380;13.372;2023-07-29T08:56:05;1.25;;;0.70;;
68523;SDS011;55524;51.380;13.372;2023-07-29T08:58:32;2.10;;;0.90;;
68523;SDS011;55524;51.380;13.372;2023-07-29T09:01:00;5.85;;;1.10;;
68523;SDS011;55524;51.380;13.372;2023-07-29T09:03:26;1.33;;;0.80;;
68523;SDS011;55524;51.380;13.372;2023-07-29T09:05:53;0.77;;;0.77;;
68523;SDS011;55524;51.380;13.372;2023-07-29T09:08:22;0.70;;;0.70;;
68523;SDS011;55524;51.380;13.372;2023-07-29T09:10:51;4.22;;;0.95;;
68523;SDS011;55524;51.380;13.372;2023-07-29T09:13:17;0.90;;;0.90;;
68523;SDS011;55524;51.380;13.372;2023-07-29T09:15:44;2.58;;;1.05;;
68523;SDS011;55524;51.380;13.372;2023-07-29T09:18:20;2.33;;;0.93;;
68523;SDS011;55524;51.380;13.372;2023-07-29T09:20:47;7.32;;;1.17;;
68523;SDS011;55524;51.380;13.372;2023-07-29T09:23:14;4.75;;;1.00;;
68523;SDS011;55524;51.380;13.372;2023-07-29T09:25:41;2.17;;;1.00;;
68523;SDS011;55524;51.380;13.372;2023-07-29T09:28:11;2.50;;;0.90;;
68523;SDS011;55524;51.380;13.372;2023-07-29T09:30:39;5.10;;;1.02;;
68523;SDS011;55524;51.380;13.372;2023-07-29T09:33:07;3.30;;;1.00;;
68523;SDS011;55524;51.380;13.372;2023-07-29T09:35:35;2.75;;;1.00;;
68523;SDS011;55524;51.380;13.372;2023-07-29T09:38:03;1.23;;;0.90;;
68523;SDS011;55524;51.380;13.372;2023-07-29T09:40:34;2.15;;;0.80;;
68523;SDS011;55524;51.380;13.372;2023-07-29T09:43:02;6.05;;;1.08;;
68523;SDS011;55524;51.380;13.372;2023-07-29T09:45:29;0.90;;;0.80;;
68523;SDS011;55524;51.380;13.372;2023-07-29T09:47:57;3.33;;;1.08;;
68523;SDS011;55524;51.380;13.372;2023-07-29T09:50:24;1.58;;;1.00;;
68523;SDS011;55524;51.380;13.372;2023-07-29T09:52:52;5.18;;;1.00;;
68523;SDS011;55524;51.380;13.372;2023-07-29T09:55:19;1.25;;;0.98;;
68523;SDS011;55524;51.380;13.372;2023-07-29T09:57:48;6.07;;;1.30;;
68523;SDS011;55524;51.380;13.372;2023-07-29T10:00:21;2.92;;;1.10;;
68523;SDS011;55524;51.380;13.372;2023-07-29T10:02:47;7.55;;;1.10;;
68523;SDS011;55524;51.380;13.372;2023-07-29T10:05:15;3.05;;;0.90;;
68523;SDS011;55524;51.380;13.372;2023-07-29T10:07:42;1.30;;;1.10;;
68523;SDS011;55524;51.380;13.372;2023-07-29T10:10:09;4.78;;;1.00;;
68523;SDS011;55524;51.380;13.372;2023-07-29T10:12:39;2.20;;;0.95;;
68523;SDS011;55524;51.380;13.372;2023-07-29T10:15:07;1.90;;;0.80;;
68523;SDS011;55524;51.380;13.372;2023-07-29T10:17:35;0.82;;;0.82;;
68523;SDS011;55524;51.380;13.372;2023-07-29T10:20:06;2.22;;;1.00;;
68523;SDS011;55524;51.380;13.372;2023-07-29T10:22:40;3.55;;;0.80;;
68523;SDS011;55524;51.380;13.372;2023-07-29T10:25:18;2.10;;;0.80;;
68523;SDS011;55524;51.380;13.372;2023-07-29T10:27:48;1.20;;;0.80;;
68523;SDS011;55524;51.380;13.372;2023-07-29T10:30:25;0.68;;;0.65;;
68523;SDS011;55524;51.380;13.372;2023-07-29T10:32:54;0.85;;;0.85;;
68523;SDS011;55524;51.380;13.372;2023-07-29T10:35:26;1.48;;;0.70;;
68523;SDS011;55524;51.380;13.372;2023-07-29T10:37:53;1.67;;;0.65;;
68523;SDS011;55524;51.380;13.372;2023-07-29T10:40:21;1.50;;;0.63;;
68523;SDS011;55524;51.380;13.372;2023-07-29T10:43:00;2.60;;;0.85;;
68523;SDS011;55524;51.380;13.372;2023-07-29T10:45:35;0.80;;;0.80;;
68523;SDS011;55524;51.380;13.372;2023-07-29T10:48:12;1.02;;;0.80;;
68523;SDS011;55524;51.380;13.372;2023-07-29T10:53:58;0.90;;;0.80;;
68523;SDS011;55524;51.380;13.372;2023-07-29T10:56:36;2.80;;;0.80;;
68523;SDS011;55524;51.380;13.372;2023-07-29T11:01:38;3.15;;;0.70;;
68523;SDS011;55524;51.380;13.372;2023-07-29T11:09:51;0.70;;;0.70;;
68523;SDS011;55524;51.380;13.372;2023-07-29T11:12:34;1.45;;;0.68;;
68523;SDS011;55524;51.380;13.372;2023-07-29T11:17:51;1.80;;;0.70;;
68523;SDS011;55524;51.380;13.372;2023-07-29T11:20:18;0.80;;;0.77;;
68523;SDS011;55524;51.380;13.372;2023-07-29T11:22:49;0.65;;;0.65;;
68523;SDS011;55524;51.380;13.372;2023-07-29T11:25:16;1.20;;;0.88;;
68523;SDS011;55524;51.380;13.372;2023-07-29T11:27:43;0.70;;;0.70;;
68523;SDS011;55524;51.380;13.372;2023-07-29T11:30:11;0.60;;;0.60;;
68523;SDS011;55524;51.380;13.372;2023-07-29T11:32:40;5.45;;;0.60;;
68523;SDS011;55524;51.380;13.372;2023-07-29T11:37:36;3.53;;;0.70;;
68523;SDS011;55524;51.380;13.372;2023-07-29T11:40:07;3.20;;;0.70;;
68523;SDS011;55524;51.380;13.372;2023-07-29T11:42:37;0.88;;;0.63;;
68523;SDS011;55524;51.380;13.372;2023-07-29T11:45:04;0.60;;;0.60;;
68523;SDS011;55524;51.380;13.372;2023-07-29T11:47:34;1.98;;;0.75;;
68523;SDS011;55524;51.380;13.372;2023-07-29T11:50:04;1.15;;;0.65;;
68523;SDS011;55524;51.380;13.372;2023-07-29T11:52:35;1.05;;;0.60;;
68523;SDS011;55524;51.380;13.372;2023-07-29T11:55:03;1.15;;;0.60;;
68523;SDS011;55524;51.380;13.372;2023-07-29T11:57:33;0.85;;;0.70;;
68523;SDS011;55524;51.380;13.372;2023-07-29T12:00:05;0.93;;;0.93;;
68523;SDS011;55524;51.380;13.372;2023-07-29T12:02:33;1.02;;;0.47;;
68523;SDS011;55524;51.380;13.372;2023-07-29T12:05:01;2.95;;;0.73;;
68523;SDS011;55524;51.380;13.372;2023-07-29T12:07:29;2.10;;;0.63;;
68523;SDS011;55524;51.380;13.372;2023-07-29T12:09:56;7.57;;;0.75;;
68523;SDS011;55524;51.380;13.372;2023-07-29T12:12:22;5.15;;;0.70;;
68523;SDS011;55524;51.380;13.372;2023-07-29T12:14:49;0.60;;;0.60;;
68523;SDS011;55524;51.380;13.372;2023-07-29T12:17:15;0.60;;;0.60;;
68523;SDS011;55524;51.380;13.372;2023-07-29T12:19:43;0.90;;;0.80;;
68523;SDS011;55524;51.380;13.372;2023-07-29T12:22:09;0.65;;;0.63;;
68523;SDS011;55524;51.380;13.372;2023-07-29T12:24:37;1.65;;;0.90;;
68523;SDS011;55524;51.380;13.372;2023-07-29T12:27:04;1.95;;;0.60;;
68523;SDS011;55524;51.380;13.372;2023-07-29T12:29:39;0.95;;;0.80;;
68523;SDS011;55524;51.380;13.372;2023-07-29T12:32:09;1.83;;;0.90;;
68523;SDS011;55524;51.380;13.372;2023-07-29T12:34:36;0.88;;;0.85;;
68523;SDS011;55524;51.380;13.372;2023-07-29T12:37:04;3.65;;;0.80;;
68523;SDS011;55524;51.380;13.372;2023-07-29T12:39:33;2.38;;;0.80;;
68523;SDS011;55524;51.380;13.372;2023-07-29T12:42:01;3.40;;;1.33;;
68523;SDS011;55524;51.380;13.372;2023-07-29T12:44:31;2.08;;;0.85;;
68523;SDS011;55524;51.380;13.372;2023-07-29T12:49:27;1.30;;;0.90;;
68523;SDS011;55524;51.380;13.372;2023-07-29T12:51:55;1.27;;;1.10;;
68523;SDS011;55524;51.380;13.372;2023-07-29T12:54:21;1.38;;;0.95;;
68523;SDS011;55524;51.380;13.372;2023-07-29T12:56:48;1.55;;;1.02;;
68523;SDS011;55524;51.380;13.372;2023-07-29T12:59:14;1.40;;;0.80;;
68523;SDS011;55524;51.380;13.372;2023-07-29T13:01:41;2.60;;;1.00;;
68523;SDS011;55524;51.380;13.372;2023-07-29T13:04:07;2.33;;;1.10;;
68523;SDS011;55524;51.380;13.372;2023-07-29T13:06:34;3.60;;;1.10;;
68523;SDS011;55524;51.380;13.372;2023-07-29T13:09:00;5.28;;;1.45;;
68523;SDS011;55524;51.380;13.372;2023-07-29T13:11:28;1.42;;;1.00;;
68523;SDS011;55524;51.380;13.372;2023-07-29T13:13:54;2.28;;;1.20;;
68523;SDS011;55524;51.380;13.372;2023-07-29T13:16:20;2.05;;;1.02;;
68523;SDS011;55524;51.380;13.372;2023-07-29T13:18:47;4.50;;;1.30;;
68523;SDS011;55524;51.380;13.372;2023-07-29T13:21:13;3.72;;;1.13;;
68523;SDS011;55524;51.380;13.372;2023-07-29T13:23:39;1.13;;;1.00;;
68523;SDS011;55524;51.380;13.372;2023-07-29T13:26:06;2.40;;;1.00;;
68523;SDS011;55524;51.380;13.372;2023-07-29T13:28:32;4.10;;;1.02;;
68523;SDS011;55524;51.380;13.372;2023-07-29T13:30:58;3.00;;;1.10;;
68523;SDS011;55524;51.380;13.372;2023-07-29T13:33:24;2.60;;;1.20;;
68523;SDS011;55524;51.380;13.372;2023-07-29T13:35:51;0.90;;;0.90;;
68523;SDS011;55524;51.380;13.372;2023-07-29T13:38:17;6.93;;;1.20;;
68523;SDS011;55524;51.380;13.372;2023-07-29T13:40:45;5.50;;;1.55;;
68523;SDS011;55524;51.380;13.372;2023-07-29T13:43:11;1.75;;;0.93;;
68523;SDS011;55524;51.380;13.372;2023-07-29T13:45:39;1.15;;;1.10;;
68523;SDS011;55524;51.380;13.372;2023-07-29T13:48:05;12.52;;;1.50;;
68523;SDS011;55524;51.380;13.372;2023-07-29T13:50:31;1.70;;;0.95;;
68523;SDS011;55524;51.380;13.372;2023-07-29T13:52:57;2.13;;;0.90;;
68523;SDS011;55524;51.380;13.372;2023-07-29T13:55:24;5.13;;;1.55;;
68523;SDS011;55524;51.380;13.372;2023-07-29T13:57:50;2.15;;;1.00;;
68523;SDS011;55524;51.380;13.372;2023-07-29T14:00:17;1.15;;;1.02;;
68523;SDS011;55524;51.380;13.372;2023-07-29T14:02:44;1.95;;;1.00;;
68523;SDS011;55524;51.380;13.372;2023-07-29T14:05:10;1.10;;;1.10;;
68523;SDS011;55524;51.380;13.372;2023-07-29T14:07:36;1.77;;;1.15;;
68523;SDS011;55524;51.380;13.372;2023-07-29T14:10:03;3.70;;;1.10;;
68523;SDS011;55524;51.380;13.372;2023-07-29T14:12:29;2.75;;;1.20;;
68523;SDS011;55524;51.380;13.372;2023-07-29T14:14:56;1.70;;;1.10;;
68523;SDS011;55524;51.380;13.372;2023-07-29T14:17:22;1.10;;;1.00;;
68523;SDS011;55524;51.380;13.372;2023-07-29T14:19:48;2.25;;;1.20;;
68523;SDS011;55524;51.380;13.372;2023-07-29T14:22:15;2.38;;;1.20;;
68523;SDS011;55524;51.380;13.372;2023-07-29T14:24:41;1.50;;;1.10;;
68523;SDS011;55524;51.380;13.372;2023-07-29T14:27:07;1.35;;;1.05;;
68523;SDS011;55524;51.380;13.372;2023-07-29T14:29:33;1.17;;;1.10;;
68523;SDS011;55524;51.380;13.372;2023-07-29T14:31:59;2.67;;;1.08;;
68523;SDS011;55524;51.380;13.372;2023-07-29T14:34:26;3.50;;;1.10;;
68523;SDS011;55524;51.380;13.372;2023-07-29T14:36:52;4.07;;;1.00;;
68523;SDS011;55524;51.380;13.372;2023-07-29T14:39:18;2.55;;;1.10;;
68523;SDS011;55524;51.380;13.372;2023-07-29T14:41:44;3.38;;;1.20;;
68523;SDS011;55524;51.380;13.372;2023-07-29T14:44:11;1.05;;;1.00;;
68523;SDS011;55524;51.380;13.372;2023-07-29T14:46:38;1.15;;;1.05;;
68523;SDS011;55524;51.380;13.372;2023-07-29T14:49:04;3.03;;;0.88;;
68523;SDS011;55524;51.380;13.372;2023-07-29T14:51:30;3.88;;;1.13;;
68523;SDS011;55524;51.380;13.372;2023-07-29T14:53:57;0.90;;;0.90;;
68523;SDS011;55524;51.380;13.372;2023-07-29T14:56:23;2.75;;;1.10;;
68523;SDS011;55524;51.380;13.372;2023-07-29T14:58:50;1.80;;;1.02;;
68523;SDS011;55524;51.380;13.372;2023-07-29T15:01:16;4.13;;;1.38;;
68523;SDS011;55524;51.380;13.372;2023-07-29T15:03:42;1.23;;;0.90;;
68523;SDS011;55524;51.380;13.372;2023-07-29T15:06:08;3.00;;;1.00;;
68523;SDS011;55524;51.380;13.372;2023-07-29T15:08:35;5.75;;;1.20;;
68523;SDS011;55524;51.380;13.372;2023-07-29T15:11:01;1.23;;;1.08;;